createdAt,value
2022-10-05T00:01:45.533Z,13.22
2022-10-05T00:04:13.351Z,13.39
2022-10-05T00:06:39.862Z,13.45
2022-10-05T00:09:21.231Z,13.44
2022-10-05T00:11:49.050Z,13.34
2022-10-05T00:14:22.141Z,13.43
2022-10-05T00:16:49.232Z,13.30
2022-10-05T00:19:23.443Z,13.33
2022-10-05T00:21:49.869Z,13.28
2022-10-05T00:24:19.351Z,13.42
2022-10-05T00:26:46.403Z,13.41
2022-10-05T00:29:21.708Z,13.35
2022-10-05T00:31:49.066Z,13.40
2022-10-05T00:34:16.946Z,13.53
2022-10-05T00:36:43.760Z,13.47
2022-10-05T00:39:10.513Z,13.43
2022-10-05T00:42:03.178Z,13.31
2022-10-05T00:44:43.286Z,13.32
2022-10-05T00:47:18.870Z,13.21
2022-10-05T00:49:57.543Z,13.26
2022-10-05T00:52:40.980Z,13.28
2022-10-05T00:55:33.975Z,13.25
2022-10-05T00:58:14.602Z,13.26
2022-10-05T01:01:13.385Z,13.35
2022-10-05T01:03:45.929Z,13.41
2022-10-05T01:07:11.498Z,13.37
2022-10-05T01:10:15.969Z,13.36
2022-10-05T01:13:12.051Z,13.33
2022-10-05T01:15:50.264Z,13.37
2022-10-05T01:18:27.790Z,13.31
2022-10-05T01:21:03.486Z,13.35
2022-10-05T01:23:42.690Z,13.22
2022-10-05T01:26:43.368Z,13.36
2022-10-05T01:29:22.523Z,13.18
2022-10-05T01:32:14.035Z,13.26
2022-10-05T01:34:49.520Z,13.33
2022-10-05T01:37:34.285Z,13.23
2022-10-05T01:40:38.981Z,13.22
2022-10-05T01:43:08.327Z,13.36
2022-10-05T01:46:14.570Z,13.19
2022-10-05T01:48:59.799Z,13.29
2022-10-05T01:51:37.054Z,13.20
2022-10-05T01:54:10.164Z,13.12
2022-10-05T01:56:43.272Z,13.05
2022-10-05T01:59:33.966Z,13.08
2022-10-05T02:02:04.294Z,13.09
2022-10-05T02:07:54.222Z,13.23
2022-10-05T02:10:28.227Z,13.26
2022-10-05T02:13:00.931Z,13.11
2022-10-05T02:15:33.887Z,13.15
2022-10-05T02:18:08.784Z,13.16
2022-10-05T02:20:39.586Z,13.11
2022-10-05T02:23:13.238Z,13.13
2022-10-05T02:25:46.053Z,13.20
2022-10-05T02:28:19.232Z,13.19
2022-10-05T02:30:54.707Z,13.21
2022-10-05T02:33:30.028Z,13.24
2022-10-05T02:36:05.329Z,13.36
2022-10-05T02:38:43.286Z,13.28
2022-10-05T02:41:25.812Z,13.26
2022-10-05T02:44:13.963Z,13.31
2022-10-05T02:47:00.550Z,13.14
2022-10-05T02:49:51.526Z,13.06
2022-10-05T02:52:37.234Z,13.12
2022-10-05T02:55:33.076Z,13.31
2022-10-05T02:58:11.455Z,13.16
2022-10-05T03:00:47.920Z,13.18
2022-10-05T03:03:32.268Z,13.20
2022-10-05T03:06:02.423Z,13.24
2022-10-05T03:08:54.107Z,13.17
2022-10-05T03:11:45.395Z,13.26
2022-10-05T03:14:33.295Z,13.11
2022-10-05T03:17:14.828Z,13.24
2022-10-05T03:19:51.177Z,13.18
2022-10-05T03:22:46.891Z,13.26
2022-10-05T03:25:31.763Z,13.41
2022-10-05T03:28:11.024Z,13.16
2022-10-05T03:31:03.429Z,13.20
2022-10-05T03:33:29.871Z,13.16
2022-10-05T03:36:10.772Z,13.17
2022-10-05T03:38:49.378Z,13.16
2022-10-05T03:41:32.484Z,13.13
2022-10-05T03:43:58.845Z,13.22
2022-10-05T03:47:01.678Z,13.15
2022-10-05T03:49:37.235Z,13.37
2022-10-05T03:52:15.488Z,13.48
2022-10-05T03:54:47.931Z,13.39
2022-10-05T03:57:27.121Z,13.38
2022-10-05T04:00:04.440Z,13.31
2022-10-05T04:02:43.621Z,13.27
2022-10-05T04:05:10.012Z,13.23
2022-10-05T04:07:51.850Z,13.20
2022-10-05T04:10:27.110Z,13.12
2022-10-05T04:13:20.544Z,13.28
2022-10-05T04:15:54.269Z,13.18
2022-10-05T04:18:33.667Z,13.27
2022-10-05T04:21:10.519Z,13.35
2022-10-05T04:23:49.212Z,13.39
2022-10-05T04:26:20.166Z,13.33
2022-10-05T04:29:00.851Z,13.25
2022-10-05T04:31:56.074Z,13.31
2022-10-05T04:34:58.066Z,13.33
2022-10-05T04:37:53.620Z,13.22
2022-10-05T04:41:03.528Z,13.34
2022-10-05T04:43:49.012Z,13.31
2022-10-05T04:46:40.383Z,13.25
2022-10-05T04:49:28.108Z,13.24
2022-10-05T04:52:25.019Z,13.25
2022-10-05T04:55:21.868Z,13.23
2022-10-05T04:58:02.566Z,13.31
2022-10-05T05:00:48.101Z,13.19
2022-10-05T05:03:29.953Z,13.16
2022-10-05T05:06:21.440Z,13.14
2022-10-05T05:09:08.918Z,13.09
2022-10-05T05:11:57.057Z,13.10
2022-10-05T05:14:42.065Z,13.04
2022-10-05T05:17:46.089Z,13.10
2022-10-05T05:20:23.071Z,13.19
2022-10-05T05:23:03.674Z,13.16
2022-10-05T05:25:46.727Z,13.23
2022-10-05T05:28:25.382Z,13.32
2022-10-05T05:31:00.688Z,13.13
2022-10-05T05:33:34.097Z,13.26
2022-10-05T05:36:25.209Z,13.10
2022-10-05T05:39:18.700Z,13.11
2022-10-05T05:42:17.029Z,13.02
2022-10-05T05:44:50.416Z,12.99
2022-10-05T05:47:24.857Z,12.97
2022-10-05T05:50:07.416Z,13.16
2022-10-05T05:52:50.303Z,13.01
2022-10-05T05:55:30.590Z,13.20
2022-10-05T05:58:21.306Z,13.15
2022-10-05T06:01:05.959Z,13.21
2022-10-05T06:03:51.391Z,13.16
2022-10-05T06:06:18.070Z,13.11
2022-10-05T06:08:53.067Z,13.05
2022-10-05T06:11:42.016Z,13.09
2022-10-05T06:14:17.139Z,13.16
2022-10-05T06:16:52.006Z,13.28
2022-10-05T06:19:22.574Z,13.25
2022-10-05T06:22:15.104Z,13.26
2022-10-05T06:25:13.736Z,13.26
2022-10-05T06:28:12.857Z,13.26
2022-10-05T06:30:51.342Z,13.30
2022-10-05T06:33:41.022Z,13.38
2022-10-05T06:36:42.899Z,13.25
2022-10-05T06:39:34.300Z,13.25
2022-10-05T06:42:41.943Z,13.25
2022-10-05T06:45:20.691Z,13.32
2022-10-05T06:48:05.325Z,13.36
2022-10-05T06:50:45.988Z,13.33
2022-10-05T06:53:30.562Z,13.47
2022-10-05T06:55:56.922Z,13.53
2022-10-05T06:58:50.250Z,13.61
2022-10-05T07:01:23.464Z,13.64
2022-10-05T07:04:15.631Z,13.63
2022-10-05T07:06:53.923Z,13.39
2022-10-05T07:09:39.106Z,13.53
2022-10-05T07:12:30.239Z,13.71
2022-10-05T07:15:03.420Z,13.68
2022-10-05T07:17:53.330Z,13.57
2022-10-05T07:20:31.527Z,13.68
2022-10-05T07:23:13.561Z,13.87
2022-10-05T07:25:50.010Z,13.92
2022-10-05T07:28:41.057Z,13.91
2022-10-05T07:31:24.097Z,14.11
2022-10-05T07:34:05.963Z,14.19
2022-10-05T07:37:01.521Z,14.41
2022-10-05T07:39:59.179Z,14.60
2022-10-05T07:42:52.660Z,14.70
2022-10-05T07:45:28.574Z,14.68
2022-10-05T07:47:57.688Z,14.69
2022-10-05T07:50:27.207Z,14.56
2022-10-05T07:53:02.080Z,14.61
2022-10-05T07:55:36.496Z,14.67
2022-10-05T07:58:09.949Z,14.50
2022-10-05T08:01:14.242Z,14.64
2022-10-05T08:03:49.831Z,14.71
2022-10-05T08:06:30.226Z,14.60
2022-10-05T08:09:04.307Z,14.64
2022-10-05T08:11:39.155Z,14.81
2022-10-05T08:14:16.948Z,14.70
2022-10-05T08:16:46.812Z,14.72
2022-10-05T08:19:53.001Z,14.97
2022-10-05T08:22:31.807Z,14.85
2022-10-05T08:25:14.467Z,14.90
2022-10-05T08:28:03.004Z,14.96
2022-10-05T08:30:35.576Z,15.05
2022-10-05T08:33:12.356Z,15.05
2022-10-05T08:35:43.803Z,15.33
2022-10-05T08:38:16.614Z,15.08
2022-10-05T08:41:05.899Z,15.16
2022-10-05T08:44:12.295Z,15.08
2022-10-05T08:46:51.003Z,15.21
2022-10-05T08:49:52.578Z,15.33
2022-10-05T08:52:29.159Z,15.00
2022-10-05T08:55:07.322Z,15.04
2022-10-05T08:57:59.794Z,15.09
2022-10-05T09:00:52.883Z,15.20
2022-10-05T09:03:43.559Z,15.09
2022-10-05T09:06:21.971Z,15.17
2022-10-05T09:09:13.053Z,15.32
2022-10-05T09:11:57.616Z,15.52
2022-10-05T09:14:39.563Z,15.82
2022-10-05T09:17:45.569Z,15.71
2022-10-05T09:20:30.387Z,15.69
2022-10-05T09:23:12.508Z,15.85
2022-10-05T09:25:56.351Z,15.77
2022-10-05T09:28:22.776Z,15.75
2022-10-05T09:31:16.303Z,15.94
2022-10-05T09:33:59.774Z,16.16
2022-10-05T09:36:54.536Z,16.03
2022-10-05T09:39:57.786Z,16.06
2022-10-05T09:43:04.022Z,15.77
2022-10-05T09:46:11.883Z,15.88
2022-10-05T09:48:44.290Z,16.03
2022-10-05T09:51:35.431Z,15.80
2022-10-05T09:54:33.578Z,15.90
2022-10-05T09:57:15.099Z,15.75
2022-10-05T09:59:51.832Z,15.58
2022-10-05T10:02:33.357Z,15.76
2022-10-05T10:05:21.339Z,15.64
2022-10-05T10:07:53.838Z,15.59
2022-10-05T10:10:35.607Z,15.33
2022-10-05T10:13:21.361Z,15.54
2022-10-05T10:16:03.578Z,15.41
2022-10-05T10:18:48.363Z,15.59
2022-10-05T10:21:42.303Z,16.04
2022-10-05T10:24:19.342Z,15.86
2022-10-05T10:27:04.470Z,15.91
2022-10-05T10:29:30.839Z,16.01
2022-10-05T10:32:12.567Z,16.05
2022-10-05T10:34:52.793Z,16.11
2022-10-05T10:37:35.196Z,16.45
2022-10-05T10:40:14.368Z,16.53
2022-10-05T10:42:56.340Z,16.43
2022-10-05T10:45:37.922Z,16.52
2022-10-05T10:48:11.318Z,16.65
2022-10-05T10:50:40.700Z,16.46
2022-10-05T10:53:34.683Z,16.96
2022-10-05T10:56:19.645Z,16.72
2022-10-05T10:59:17.259Z,16.61
2022-10-05T11:02:01.178Z,16.51
2022-10-05T11:04:37.167Z,16.78
2022-10-05T11:07:16.112Z,16.90
2022-10-05T11:09:56.201Z,16.86
2022-10-05T11:13:12.220Z,16.25
2022-10-05T11:19:03.866Z,16.08
2022-10-05T11:21:54.471Z,16.06
2022-10-05T11:24:57.886Z,15.97
2022-10-05T11:28:06.386Z,16.13
2022-10-05T11:31:08.730Z,16.09
2022-10-05T11:33:56.863Z,16.28
2022-10-05T11:36:29.299Z,16.22
2022-10-05T11:39:33.430Z,16.36
2022-10-05T11:42:15.099Z,15.99
2022-10-05T11:45:29.141Z,16.18
2022-10-05T11:48:22.884Z,16.26
2022-10-05T11:51:27.798Z,16.19
2022-10-05T11:54:17.557Z,16.09
2022-10-05T11:57:13.078Z,16.03
2022-10-05T11:59:56.457Z,16.00
2022-10-05T12:03:03.462Z,16.23
2022-10-05T12:05:32.943Z,16.60
2022-10-05T12:08:25.659Z,16.92
2022-10-05T12:11:29.629Z,16.44
2022-10-05T12:14:03.264Z,16.68
2022-10-05T12:16:52.683Z,16.64
2022-10-05T12:19:27.215Z,16.43
2022-10-05T12:21:59.972Z,16.69
2022-10-05T12:24:35.237Z,16.47
2022-10-05T12:27:10.980Z,16.66
2022-10-05T12:29:43.514Z,16.30
2022-10-05T12:32:17.035Z,16.43
2022-10-05T12:35:01.670Z,16.26
2022-10-05T12:37:28.707Z,16.41
2022-10-05T12:40:01.779Z,16.29
2022-10-05T12:42:31.765Z,16.25
2022-10-05T12:45:29.938Z,16.27
2022-10-05T12:48:22.059Z,16.03
2022-10-05T12:51:10.692Z,16.17
2022-10-05T12:53:40.067Z,15.93
2022-10-05T12:56:21.719Z,16.03
2022-10-05T12:59:07.618Z,15.55
2022-10-05T13:01:40.109Z,15.72
2022-10-05T13:04:24.844Z,15.87
2022-10-05T13:07:12.899Z,15.78
2022-10-05T13:10:11.623Z,15.71
2022-10-05T13:12:52.990Z,15.51
2022-10-05T13:15:41.507Z,15.64
2022-10-05T13:18:18.210Z,15.43
2022-10-05T13:20:56.324Z,15.40
2022-10-05T13:23:31.952Z,15.47
2022-10-05T13:26:08.871Z,15.66
2022-10-05T13:28:44.256Z,15.47
2022-10-05T13:31:40.814Z,15.48
2022-10-05T13:34:27.984Z,15.55
2022-10-05T13:37:07.021Z,15.37
2022-10-05T13:40:12.615Z,15.42
2022-10-05T13:42:48.220Z,15.34
2022-10-05T13:45:27.170Z,15.30
2022-10-05T13:48:05.657Z,15.48
2022-10-05T13:50:35.309Z,15.51
2022-10-05T13:53:13.439Z,15.76
2022-10-05T13:55:49.643Z,15.41
2022-10-05T13:59:11.789Z,15.45
2022-10-05T14:01:46.931Z,15.51
2022-10-05T14:04:21.967Z,15.35
2022-10-05T14:06:49.040Z,15.52
2022-10-05T14:09:30.641Z,15.47
2022-10-05T14:12:02.805Z,15.49
2022-10-05T14:14:31.641Z,15.25
2022-10-05T14:17:05.982Z,15.36
2022-10-05T14:19:41.798Z,15.19
2022-10-05T14:22:12.953Z,15.21
2022-10-05T14:24:59.066Z,15.21
2022-10-05T14:27:33.218Z,15.16
2022-10-05T14:30:01.712Z,15.16
2022-10-05T14:32:43.175Z,15.34
2022-10-05T14:35:18.488Z,15.24
2022-10-05T14:37:50.457Z,15.36
2022-10-05T14:40:43.197Z,15.50
2022-10-05T14:43:15.676Z,15.38
2022-10-05T14:45:57.624Z,15.37
2022-10-05T14:48:29.047Z,15.45
2022-10-05T14:51:03.247Z,15.35
2022-10-05T14:53:44.331Z,15.35
2022-10-05T14:56:17.070Z,15.53
2022-10-05T14:58:49.610Z,15.55
2022-10-05T15:01:39.173Z,15.52
2022-10-05T15:04:30.600Z,15.58
2022-10-05T15:07:09.299Z,15.57
2022-10-05T15:09:49.600Z,15.44
2022-10-05T15:12:29.218Z,15.43
2022-10-05T15:15:03.253Z,15.48
2022-10-05T15:17:45.019Z,15.52
2022-10-05T15:20:24.645Z,15.49
2022-10-05T15:23:29.564Z,15.17
2022-10-05T15:26:15.036Z,15.25
2022-10-05T15:28:48.241Z,15.47
2022-10-05T15:31:48.836Z,15.61
2022-10-05T15:34:34.082Z,15.47
2022-10-05T15:37:26.062Z,15.51
2022-10-05T15:39:56.668Z,15.44
2022-10-05T15:42:38.328Z,15.21
2022-10-05T15:45:20.193Z,15.44
2022-10-05T15:48:01.708Z,15.30
2022-10-05T15:50:33.946Z,15.11
2022-10-05T15:53:10.635Z,15.11
2022-10-05T15:55:52.110Z,15.16
2022-10-05T15:58:38.629Z,15.24
2022-10-05T16:01:40.168Z,15.18
2022-10-05T16:04:18.099Z,15.34
2022-10-05T16:07:12.343Z,15.19
2022-10-05T16:09:56.640Z,15.08
2022-10-05T16:12:23.000Z,15.21
2022-10-05T16:15:08.497Z,15.11
2022-10-05T16:17:47.905Z,15.08
2022-10-05T16:20:57.563Z,15.04
2022-10-05T16:23:58.114Z,14.89
2022-10-05T16:26:24.511Z,14.91
2022-10-05T16:29:12.948Z,14.93
2022-10-05T16:31:57.466Z,14.84
2022-10-05T16:34:54.207Z,14.93
2022-10-05T16:37:58.481Z,15.08
2022-10-05T16:40:45.156Z,14.90
2022-10-05T16:43:28.930Z,14.94
2022-10-05T16:46:12.820Z,14.91
2022-10-05T16:48:49.640Z,14.84
2022-10-05T16:51:36.620Z,14.86
2022-10-05T16:54:11.513Z,14.87
2022-10-05T16:56:46.739Z,14.88
2022-10-05T16:59:35.081Z,14.89
2022-10-05T17:02:29.958Z,14.82
2022-10-05T17:05:18.611Z,14.72
2022-10-05T17:08:19.208Z,14.79
2022-10-05T17:11:05.366Z,14.85
2022-10-05T17:14:07.740Z,15.05
2022-10-05T17:16:40.382Z,14.91
2022-10-05T17:19:20.735Z,14.82
2022-10-05T17:22:00.542Z,14.92
2022-10-05T17:24:32.678Z,14.82
2022-10-05T17:27:12.436Z,14.71
2022-10-05T17:29:41.835Z,14.89
2022-10-05T17:32:30.135Z,14.97
2022-10-05T17:35:00.648Z,14.97
2022-10-05T17:37:27.003Z,14.82
2022-10-05T17:39:55.992Z,14.81
2022-10-05T17:42:31.244Z,14.83
2022-10-05T17:45:20.670Z,14.94
2022-10-05T17:48:03.215Z,15.06
2022-10-05T17:51:04.177Z,15.02
2022-10-05T17:53:52.332Z,14.83
2022-10-05T17:56:20.214Z,14.83
2022-10-05T17:58:54.460Z,14.91
2022-10-05T18:01:41.460Z,14.93
2022-10-05T18:04:10.938Z,15.05
2022-10-05T18:07:22.980Z,15.01
2022-10-05T18:10:16.859Z,15.05
2022-10-05T18:12:48.725Z,15.05
2022-10-05T18:15:24.174Z,15.18
2022-10-05T18:17:57.440Z,15.21
2022-10-05T18:20:23.839Z,15.04
2022-10-05T18:22:52.942Z,14.95
2022-10-05T18:25:27.079Z,14.94
2022-10-05T18:27:58.248Z,15.01
2022-10-05T18:30:26.814Z,14.94
2022-10-05T18:32:55.927Z,14.96
2022-10-05T18:35:50.396Z,14.96
2022-10-05T18:38:28.082Z,15.23
2022-10-05T18:41:03.312Z,15.17
2022-10-05T18:43:38.617Z,15.23
2022-10-05T18:46:14.177Z,15.21
2022-10-05T18:49:03.642Z,15.17
2022-10-05T18:51:58.648Z,15.20
2022-10-05T18:54:40.774Z,15.18
2022-10-05T18:57:41.227Z,15.09
2022-10-05T19:00:13.345Z,15.10
2022-10-05T19:02:45.948Z,14.98
2022-10-05T19:05:46.389Z,15.03
2022-10-05T19:08:20.499Z,15.08
2022-10-05T19:11:19.391Z,15.10
2022-10-05T19:13:57.871Z,15.16
2022-10-05T19:16:31.878Z,15.20
2022-10-05T19:19:24.011Z,15.23
2022-10-05T19:22:27.676Z,15.24
2022-10-05T19:25:14.364Z,15.38
2022-10-05T19:28:13.090Z,15.56
2022-10-05T19:30:55.523Z,15.57
2022-10-05T19:33:25.988Z,15.59
2022-10-05T19:36:16.006Z,15.57
2022-10-05T19:38:48.669Z,15.64
2022-10-05T19:41:27.414Z,15.61
2022-10-05T19:44:19.804Z,15.56
2022-10-05T19:46:49.245Z,15.74
2022-10-05T19:49:36.501Z,15.72
2022-10-05T19:52:10.908Z,15.67
2022-10-05T19:54:37.919Z,15.66
2022-10-05T19:57:16.997Z,15.76
2022-10-05T19:59:47.717Z,15.72
2022-10-05T20:02:16.828Z,15.74
2022-10-05T20:04:47.454Z,15.72
2022-10-05T20:07:17.085Z,15.74
2022-10-05T20:10:36.092Z,15.78
2022-10-05T20:13:04.508Z,15.86
2022-10-05T20:15:52.143Z,15.93
2022-10-05T20:18:56.168Z,16.04
2022-10-05T20:21:59.727Z,16.01
2022-10-05T20:24:28.207Z,15.96
2022-10-05T20:27:06.645Z,16.01
2022-10-05T20:29:41.073Z,16.01
2022-10-05T20:32:17.828Z,16.09
2022-10-05T20:34:46.728Z,16.14
2022-10-05T20:37:18.558Z,16.04
2022-10-05T20:39:45.369Z,16.10
2022-10-05T20:42:11.922Z,16.15
2022-10-05T20:44:38.455Z,16.10
2022-10-05T20:47:08.667Z,16.20
2022-10-05T20:49:36.462Z,16.19
2022-10-05T20:52:06.460Z,16.36
2022-10-05T20:54:32.943Z,16.29
2022-10-05T20:56:59.454Z,16.33
2022-10-05T20:59:26.286Z,16.26
2022-10-05T21:01:52.846Z,16.35
2022-10-05T21:04:22.628Z,16.27
2022-10-05T21:06:49.335Z,16.18
2022-10-05T21:09:21.354Z,16.05
2022-10-05T21:11:52.885Z,15.97
2022-10-05T21:14:19.347Z,15.97
2022-10-05T21:16:45.998Z,15.97
2022-10-05T21:19:14.306Z,15.93
2022-10-05T21:21:45.077Z,16.00
2022-10-05T21:24:14.187Z,15.91
2022-10-05T21:26:41.684Z,16.06
2022-10-05T21:29:12.535Z,15.95
2022-10-05T21:31:40.274Z,15.95
2022-10-05T21:34:07.504Z,15.84
2022-10-05T21:36:34.691Z,15.98
2022-10-05T21:39:01.216Z,16.06
2022-10-05T21:41:27.676Z,16.08
2022-10-05T21:43:54.212Z,16.06
2022-10-05T21:46:22.843Z,16.14
2022-10-05T21:48:49.810Z,16.03
2022-10-05T21:51:18.804Z,15.80
2022-10-05T21:54:10.839Z,15.91
2022-10-05T21:56:40.351Z,16.07
2022-10-05T21:59:10.867Z,15.99
2022-10-05T22:01:37.445Z,16.01
2022-10-05T22:04:05.120Z,15.86
2022-10-05T22:06:32.459Z,15.83
2022-10-05T22:08:59.602Z,15.66
2022-10-05T22:11:26.656Z,15.63
2022-10-05T22:13:53.728Z,15.61
2022-10-05T22:16:23.067Z,15.43
2022-10-05T22:18:50.043Z,15.24
2022-10-05T22:21:17.159Z,15.08
2022-10-05T22:23:45.619Z,14.63
2022-10-05T22:26:14.223Z,14.42
2022-10-05T22:28:42.540Z,14.28
2022-10-05T22:31:10.226Z,14.21
2022-10-05T22:33:37.134Z,14.16
2022-10-05T22:36:04.669Z,14.15
2022-10-05T22:38:31.414Z,14.13
2022-10-05T22:40:58.257Z,14.13
2022-10-05T22:43:26.876Z,14.06
2022-10-05T22:45:53.882Z,14.06
2022-10-05T22:48:20.509Z,14.06
2022-10-05T22:50:47.579Z,14.00
2022-10-05T22:53:14.537Z,13.95
2022-10-05T22:55:41.263Z,14.04
2022-10-05T22:58:07.722Z,14.10
2022-10-05T23:00:56.477Z,14.05
2022-10-05T23:03:20.564Z,14.03
2022-10-05T23:05:46.991Z,14.02
2022-10-05T23:08:13.403Z,13.97
2022-10-05T23:10:39.787Z,13.92
2022-10-05T23:13:06.269Z,14.08
2022-10-05T23:15:33.727Z,13.98
2022-10-05T23:18:00.226Z,14.00
2022-10-05T23:20:26.932Z,13.84
2022-10-05T23:22:53.725Z,13.93
2022-10-05T23:25:22.074Z,13.85
2022-10-05T23:27:48.474Z,13.98
2022-10-05T23:30:14.973Z,13.95
2022-10-05T23:32:42.947Z,13.93
2022-10-05T23:35:11.847Z,14.01
2022-10-05T23:37:45.127Z,14.09
2022-10-05T23:40:13.811Z,14.06
2022-10-05T23:42:40.907Z,14.07
2022-10-05T23:45:09.769Z,13.92
2022-10-05T23:47:36.801Z,13.87
2022-10-05T23:50:05.267Z,13.82
2022-10-05T23:52:31.698Z,13.78
2022-10-05T23:54:58.108Z,13.67
2022-10-05T23:57:24.714Z,13.63
2022-10-05T23:59:51.164Z,13.47
